createdAt,value
2022-09-27T00:00:44.525Z,11.75
2022-09-27T00:03:16.794Z,11.73
2022-09-27T00:05:48.929Z,11.81
2022-09-27T00:08:20.999Z,11.82
2022-09-27T00:11:13.813Z,11.82
2022-09-27T00:13:46.322Z,11.89
2022-09-27T00:16:18.695Z,11.91
2022-09-27T00:18:51.001Z,11.86
2022-09-27T00:21:23.390Z,11.90
2022-09-27T00:23:55.696Z,11.98
2022-09-27T00:26:29.449Z,11.98
2022-09-27T00:29:11.721Z,11.98
2022-09-27T00:31:44.398Z,11.95
2022-09-27T00:34:25.720Z,12.00
2022-09-27T00:36:58.037Z,12.05
2022-09-27T00:39:30.282Z,12.00
2022-09-27T00:42:02.705Z,12.01
2022-09-27T00:44:38.782Z,12.07
2022-09-27T00:47:25.704Z,12.09
2022-09-27T00:50:11.012Z,12.07
2022-09-27T00:53:09.874Z,12.07
2022-09-27T00:55:59.598Z,12.00
2022-09-27T00:58:39.961Z,12.03
2022-09-27T01:01:13.843Z,12.00
2022-09-27T01:04:16.689Z,11.99
2022-09-27T01:06:49.209Z,12.02
2022-09-27T01:09:22.425Z,12.00
2022-09-27T01:12:12.612Z,12.02
2022-09-27T01:15:22.403Z,12.09
2022-09-27T01:18:36.432Z,12.09
2022-09-27T01:21:29.338Z,12.02
2022-09-27T01:24:28.661Z,12.07
2022-09-27T01:27:03.274Z,12.03
2022-09-27T01:29:57.435Z,12.09
2022-09-27T01:32:45.133Z,12.09
2022-09-27T01:35:28.597Z,12.11
2022-09-27T01:38:56.944Z,12.07
2022-09-27T01:41:43.507Z,12.14
2022-09-27T01:44:25.398Z,12.20
2022-09-27T01:47:06.009Z,12.21
2022-09-27T01:50:07.579Z,12.13
2022-09-27T01:52:51.693Z,12.09
2022-09-27T01:55:28.933Z,12.07
2022-09-27T01:58:39.512Z,12.07
2022-09-27T02:01:14.460Z,11.88
2022-09-27T02:03:51.855Z,12.00
2022-09-27T02:06:33.460Z,12.02
2022-09-27T02:09:29.710Z,12.05
2022-09-27T02:12:08.758Z,12.07
2022-09-27T02:15:10.821Z,12.01
2022-09-27T02:18:13.430Z,12.03
2022-09-27T02:20:52.303Z,12.02
2022-09-27T02:23:36.535Z,12.03
2022-09-27T02:26:42.244Z,12.05
2022-09-27T02:29:22.187Z,11.96
2022-09-27T02:31:54.233Z,11.94
2022-09-27T02:34:29.769Z,11.82
2022-09-27T02:37:01.862Z,11.87
2022-09-27T02:39:33.955Z,11.87
2022-09-27T02:42:07.090Z,11.88
2022-09-27T02:44:39.395Z,11.82
2022-09-27T02:47:44.113Z,11.87
2022-09-27T02:50:28.474Z,11.80
2022-09-27T02:53:09.042Z,11.83
2022-09-27T02:56:22.367Z,11.79
2022-09-27T02:59:21.709Z,11.80
2022-09-27T03:02:27.902Z,11.81
2022-09-27T03:05:11.165Z,11.76
2022-09-27T03:07:43.521Z,11.72
2022-09-27T03:10:23.873Z,11.72
2022-09-27T03:12:57.437Z,11.67
2022-09-27T03:15:29.434Z,11.68
2022-09-27T03:18:02.344Z,11.71
2022-09-27T03:20:34.642Z,11.59
2022-09-27T03:23:06.607Z,11.60
2022-09-27T03:25:38.558Z,11.58
2022-09-27T03:28:10.853Z,11.57
2022-09-27T03:30:43.024Z,11.59
2022-09-27T03:33:15.063Z,11.58
2022-09-27T03:35:47.026Z,11.59
2022-09-27T03:38:19.012Z,11.53
2022-09-27T03:40:51.011Z,11.41
2022-09-27T03:43:23.068Z,11.41
2022-09-27T03:45:55.149Z,11.39
2022-09-27T03:48:28.282Z,11.44
2022-09-27T03:51:00.381Z,11.46
2022-09-27T03:53:32.334Z,11.42
2022-09-27T03:56:04.579Z,11.43
2022-09-27T03:58:36.593Z,11.43
2022-09-27T04:01:09.025Z,11.36
2022-09-27T04:03:41.191Z,11.39
2022-09-27T04:06:14.073Z,11.39
2022-09-27T04:08:47.535Z,11.35
2022-09-27T04:11:19.437Z,11.39
2022-09-27T04:13:51.505Z,11.39
2022-09-27T04:16:23.789Z,11.43
2022-09-27T04:18:55.863Z,11.41
2022-09-27T04:21:28.687Z,11.24
2022-09-27T04:24:00.926Z,11.28
2022-09-27T04:26:32.863Z,11.28
2022-09-27T04:29:04.889Z,11.25
2022-09-27T04:31:38.042Z,11.31
2022-09-27T04:34:10.496Z,11.21
2022-09-27T04:36:42.420Z,11.23
2022-09-27T04:39:15.389Z,11.22
2022-09-27T04:41:47.470Z,11.28
2022-09-27T04:44:19.427Z,11.26
2022-09-27T04:46:51.322Z,11.27
2022-09-27T04:49:23.305Z,11.25
2022-09-27T04:51:56.174Z,11.25
2022-09-27T04:54:28.329Z,11.29
2022-09-27T04:57:00.349Z,11.34
2022-09-27T04:59:32.332Z,11.32
2022-09-27T05:02:04.520Z,11.28
2022-09-27T05:04:36.487Z,11.22
2022-09-27T05:07:08.454Z,11.18
2022-09-27T05:09:40.695Z,11.08
2022-09-27T05:12:13.803Z,11.13
2022-09-27T05:14:46.108Z,11.20
2022-09-27T05:17:18.826Z,11.27
2022-09-27T05:19:51.250Z,11.28
2022-09-27T05:22:23.174Z,11.31
2022-09-27T05:24:55.165Z,11.26
2022-09-27T05:27:27.162Z,11.24
2022-09-27T05:30:02.040Z,11.26
2022-09-27T05:32:35.024Z,11.20
2022-09-27T05:35:07.728Z,11.21
2022-09-27T05:37:40.718Z,11.19
2022-09-27T05:40:36.459Z,11.22
2022-09-27T05:43:05.142Z,11.16
2022-09-27T05:45:37.148Z,11.21
2022-09-27T05:48:09.264Z,11.13
2022-09-27T05:50:41.561Z,11.13
2022-09-27T05:53:13.854Z,11.13
2022-09-27T05:55:45.801Z,11.11
2022-09-27T05:58:17.804Z,11.17
2022-09-27T06:00:49.907Z,11.18
2022-09-27T06:03:21.917Z,11.09
2022-09-27T06:05:53.947Z,11.03
2022-09-27T06:08:25.917Z,11.05
2022-09-27T06:11:05.986Z,11.13
2022-09-27T06:13:39.047Z,11.14
2022-09-27T06:16:12.242Z,11.20
2022-09-27T06:18:44.183Z,11.13
2022-09-27T06:21:16.113Z,11.02
2022-09-27T06:23:52.030Z,11.09
2022-09-27T06:26:29.594Z,11.19
2022-09-27T06:29:01.584Z,11.23
2022-09-27T06:31:33.501Z,11.25
2022-09-27T06:34:05.456Z,11.25
2022-09-27T06:36:37.432Z,11.28
2022-09-27T06:39:09.511Z,11.33
2022-09-27T06:41:41.966Z,11.36
2022-09-27T06:44:14.591Z,11.34
2022-09-27T06:46:46.547Z,11.28
2022-09-27T06:49:19.988Z,11.38
2022-09-27T06:51:52.822Z,11.41
2022-09-27T06:54:24.768Z,11.58
2022-09-27T06:57:01.638Z,11.67
2022-09-27T06:59:52.705Z,11.64
2022-09-27T07:02:25.791Z,11.77
2022-09-27T07:04:59.078Z,11.74
2022-09-27T07:07:31.134Z,11.59
2022-09-27T07:10:07.615Z,11.56
2022-09-27T07:12:41.715Z,11.72
2022-09-27T07:15:13.816Z,11.80
2022-09-27T07:17:45.813Z,11.69
2022-09-27T07:20:18.667Z,11.77
2022-09-27T07:22:50.897Z,11.75
2022-09-27T07:25:23.820Z,11.71
2022-09-27T07:28:02.382Z,11.80
2022-09-27T07:30:37.381Z,11.92
2022-09-27T07:33:10.753Z,11.99
2022-09-27T07:35:43.890Z,12.15
2022-09-27T07:38:16.595Z,12.20
2022-09-27T07:40:48.648Z,12.24
2022-09-27T07:43:20.841Z,12.30
2022-09-27T07:45:56.706Z,12.34
2022-09-27T07:48:28.762Z,12.37
2022-09-27T07:51:00.702Z,12.47
2022-09-27T07:53:32.646Z,12.56
2022-09-27T07:56:04.708Z,12.62
2022-09-27T07:58:36.637Z,12.60
2022-09-27T08:01:08.746Z,12.44
2022-09-27T08:03:40.673Z,12.43
2022-09-27T08:06:13.300Z,12.44
2022-09-27T08:08:45.855Z,12.38
2022-09-27T08:11:19.106Z,12.38
2022-09-27T08:13:52.772Z,12.40
2022-09-27T08:16:24.756Z,12.22
2022-09-27T08:18:56.704Z,12.28
2022-09-27T08:21:28.907Z,12.19
2022-09-27T08:24:01.379Z,12.13
2022-09-27T08:26:33.345Z,12.13
2022-09-27T08:29:05.546Z,12.14
2022-09-27T08:31:37.566Z,12.12
2022-09-27T08:34:09.641Z,12.26
2022-09-27T08:36:43.971Z,12.28
2022-09-27T08:39:16.426Z,12.19
2022-09-27T08:42:19.077Z,12.19
2022-09-27T08:45:26.324Z,12.29
2022-09-27T08:48:04.143Z,12.27
2022-09-27T08:50:41.990Z,12.22
2022-09-27T08:53:30.990Z,12.24
2022-09-27T08:56:03.881Z,12.15
2022-09-27T08:58:41.682Z,12.25
2022-09-27T09:01:17.919Z,12.14
2022-09-27T09:03:56.294Z,12.11
2022-09-27T09:06:44.554Z,12.10
2022-09-27T09:09:46.963Z,11.99
2022-09-27T09:12:50.069Z,12.13
2022-09-27T09:16:00.109Z,12.14
2022-09-27T09:18:39.051Z,12.22
2022-09-27T09:21:38.678Z,12.30
2022-09-27T09:24:32.575Z,12.46
2022-09-27T09:27:28.109Z,12.48
2022-09-27T09:33:11.186Z,12.06
2022-09-27T09:35:50.860Z,12.04
2022-09-27T09:38:45.086Z,11.88
2022-09-27T09:41:30.315Z,11.86
2022-09-27T09:44:15.116Z,11.78
2022-09-27T09:46:53.598Z,11.89
2022-09-27T09:49:45.291Z,11.97
2022-09-27T09:52:20.148Z,11.95
2022-09-27T09:54:57.915Z,12.00
2022-09-27T09:57:41.346Z,12.01
2022-09-27T10:00:19.160Z,11.93
2022-09-27T10:02:55.462Z,11.86
2022-09-27T10:05:29.036Z,11.80
2022-09-27T10:08:08.466Z,11.83
2022-09-27T10:10:40.630Z,11.66
2022-09-27T10:13:20.230Z,11.59
2022-09-27T10:16:14.790Z,11.61
2022-09-27T10:18:50.330Z,11.64
2022-09-27T10:21:27.329Z,11.71
2022-09-27T10:24:18.619Z,11.78
2022-09-27T10:26:52.021Z,11.74
2022-09-27T10:29:36.361Z,11.61
2022-09-27T10:32:25.669Z,11.71
2022-09-27T10:35:29.658Z,11.70
2022-09-27T10:38:22.982Z,11.81
2022-09-27T10:40:58.884Z,11.83
2022-09-27T10:43:36.633Z,11.98
2022-09-27T10:46:32.117Z,12.07
2022-09-27T10:49:31.316Z,11.99
2022-09-27T10:52:10.589Z,12.14
2022-09-27T10:54:53.269Z,12.20
2022-09-27T10:57:28.733Z,12.17
2022-09-27T11:00:09.110Z,11.96
2022-09-27T11:02:42.602Z,11.83
2022-09-27T11:05:31.845Z,11.61
2022-09-27T11:08:24.223Z,11.49
2022-09-27T11:11:14.039Z,11.49
2022-09-27T11:14:04.974Z,11.63
2022-09-27T11:16:47.317Z,11.59
2022-09-27T11:19:48.541Z,11.60
2022-09-27T11:23:04.835Z,11.69
2022-09-27T11:25:58.297Z,11.73
2022-09-27T11:29:07.969Z,11.68
2022-09-27T11:32:02.614Z,11.71
2022-09-27T11:35:32.589Z,11.66
2022-09-27T11:38:52.240Z,11.74
2022-09-27T11:41:30.145Z,11.80
2022-09-27T11:44:32.409Z,11.62
2022-09-27T11:47:35.521Z,11.59
2022-09-27T11:50:28.583Z,11.60
2022-09-27T11:53:26.021Z,11.64
2022-09-27T11:56:31.930Z,11.50
2022-09-27T11:59:03.844Z,11.66
2022-09-27T12:02:01.082Z,11.81
2022-09-27T12:04:59.535Z,11.79
2022-09-27T12:07:48.090Z,11.80
2022-09-27T12:10:21.720Z,11.94
2022-09-27T12:12:58.008Z,11.97
2022-09-27T12:15:35.092Z,12.03
2022-09-27T12:18:28.616Z,12.15
2022-09-27T12:21:03.281Z,12.20
2022-09-27T12:23:57.936Z,12.25
2022-09-27T12:26:44.492Z,12.16
2022-09-27T12:29:32.309Z,12.30
2022-09-27T12:32:27.038Z,12.46
2022-09-27T12:35:27.850Z,12.30
2022-09-27T12:38:05.499Z,12.28
2022-09-27T12:40:55.822Z,12.35
2022-09-27T12:43:28.916Z,12.36
2022-09-27T12:46:30.407Z,12.34
2022-09-27T12:49:11.501Z,12.29
2022-09-27T12:52:08.726Z,12.33
2022-09-27T12:55:24.135Z,12.22
2022-09-27T12:58:20.443Z,12.15
2022-09-27T13:01:24.152Z,12.23
2022-09-27T13:04:10.376Z,12.18
2022-09-27T13:07:24.091Z,12.23
2022-09-27T13:10:31.280Z,12.25
2022-09-27T13:13:06.057Z,12.40
2022-09-27T13:15:39.933Z,12.60
2022-09-27T13:18:36.846Z,12.62
2022-09-27T13:21:10.454Z,12.80
2022-09-27T13:23:42.274Z,12.89
2022-09-27T13:26:32.858Z,12.76
2022-09-27T13:29:25.446Z,12.66
2022-09-27T13:31:57.963Z,12.84
2022-09-27T13:34:42.955Z,12.83
2022-09-27T13:37:38.753Z,12.70
2022-09-27T13:40:16.488Z,12.60
2022-09-27T13:43:28.252Z,12.74
2022-09-27T13:46:10.839Z,12.92
2022-09-27T13:49:02.109Z,12.82
2022-09-27T13:51:48.506Z,13.00
2022-09-27T13:54:52.346Z,12.88
2022-09-27T13:57:43.243Z,12.75
2022-09-27T14:00:32.529Z,12.65
2022-09-27T14:03:23.604Z,12.49
2022-09-27T14:06:07.868Z,12.53
2022-09-27T14:08:57.000Z,12.55
2022-09-27T14:11:35.130Z,12.55
2022-09-27T14:14:15.695Z,12.59
2022-09-27T14:16:47.875Z,12.53
2022-09-27T14:19:23.093Z,12.33
2022-09-27T14:21:56.130Z,12.28
2022-09-27T14:24:31.240Z,12.14
2022-09-27T14:27:14.212Z,11.97
2022-09-27T14:29:54.440Z,11.85
2022-09-27T14:32:31.666Z,11.91
2022-09-27T14:35:39.179Z,11.96
2022-09-27T14:38:36.715Z,12.08
2022-09-27T14:41:10.070Z,12.14
2022-09-27T14:43:45.976Z,12.23
2022-09-27T14:46:32.382Z,12.15
2022-09-27T14:49:23.848Z,11.98
2022-09-27T14:51:56.844Z,12.07
2022-09-27T14:54:33.166Z,12.16
2022-09-27T14:57:07.732Z,12.14
2022-09-27T14:59:44.634Z,12.00
2022-09-27T15:02:22.328Z,12.02
2022-09-27T15:04:55.505Z,11.94
2022-09-27T15:07:27.911Z,12.06
2022-09-27T15:09:59.926Z,12.22
2022-09-27T15:12:32.259Z,12.31
2022-09-27T15:15:07.151Z,12.35
2022-09-27T15:17:44.110Z,12.37
2022-09-27T15:20:35.208Z,12.35
2022-09-27T15:23:07.621Z,12.35
2022-09-27T15:25:44.554Z,12.37
2022-09-27T15:28:19.645Z,12.42
2022-09-27T15:30:58.470Z,12.44
2022-09-27T15:33:35.830Z,12.27
2022-09-27T15:36:11.074Z,12.41
2022-09-27T15:38:47.672Z,12.54
2022-09-27T15:41:21.290Z,12.69
2022-09-27T15:43:53.504Z,12.88
2022-09-27T15:46:38.648Z,12.87
2022-09-27T15:49:33.758Z,12.99
2022-09-27T15:52:05.686Z,13.18
2022-09-27T15:54:37.771Z,13.09
2022-09-27T15:57:12.528Z,12.98
2022-09-27T15:59:44.438Z,12.87
2022-09-27T16:02:19.453Z,12.97
2022-09-27T16:04:51.521Z,12.88
2022-09-27T16:07:23.583Z,12.72
2022-09-27T16:09:55.676Z,12.58
2022-09-27T16:12:30.262Z,12.53
2022-09-27T16:15:02.183Z,12.42
2022-09-27T16:17:37.869Z,12.42
2022-09-27T16:20:26.522Z,12.49
2022-09-27T16:22:59.107Z,12.57
2022-09-27T16:25:31.254Z,12.54
2022-09-27T16:28:05.490Z,12.42
2022-09-27T16:30:37.386Z,12.35
2022-09-27T16:33:09.439Z,12.23
2022-09-27T16:35:41.553Z,12.19
2022-09-27T16:38:13.499Z,12.01
2022-09-27T16:40:45.435Z,11.87
2022-09-27T16:43:17.443Z,11.88
2022-09-27T16:45:49.392Z,11.88
2022-09-27T16:48:21.453Z,11.80
2022-09-27T16:51:12.099Z,11.68
2022-09-27T16:53:44.243Z,11.61
2022-09-27T16:56:20.531Z,11.68
2022-09-27T16:58:53.495Z,11.63
2022-09-27T17:01:28.852Z,11.44
2022-09-27T17:04:01.173Z,11.41
2022-09-27T17:06:33.094Z,11.35
2022-09-27T17:09:05.492Z,11.38
2022-09-27T17:11:37.588Z,11.42
2022-09-27T17:14:17.440Z,11.47
2022-09-27T17:16:57.956Z,11.39
2022-09-27T17:19:29.865Z,11.36
2022-09-27T17:22:02.176Z,11.31
2022-09-27T17:24:35.637Z,11.28
2022-09-27T17:27:07.566Z,11.23
2022-09-27T17:29:39.667Z,11.25
2022-09-27T17:32:13.759Z,11.20
2022-09-27T17:34:45.743Z,11.21
2022-09-27T17:37:17.869Z,11.10
2022-09-27T17:39:49.862Z,11.20
2022-09-27T17:42:23.546Z,11.13
2022-09-27T17:44:55.481Z,11.19
2022-09-27T17:47:46.872Z,11.16
2022-09-27T17:50:24.785Z,11.09
2022-09-27T17:52:58.934Z,11.06
2022-09-27T17:55:30.977Z,11.03
2022-09-27T17:58:04.007Z,10.98
2022-09-27T18:00:35.990Z,10.96
2022-09-27T18:03:08.181Z,10.91
2022-09-27T18:05:40.248Z,10.87
2022-09-27T18:08:12.196Z,10.81
2022-09-27T18:10:44.149Z,10.66
2022-09-27T18:13:16.184Z,10.65
2022-09-27T18:15:59.679Z,10.64
2022-09-27T18:18:34.245Z,10.67
2022-09-27T18:21:16.789Z,10.60
2022-09-27T18:23:54.542Z,10.63
2022-09-27T18:26:29.453Z,10.53
2022-09-27T18:29:08.043Z,10.58
2022-09-27T18:31:42.835Z,10.48
2022-09-27T18:34:20.276Z,10.46
2022-09-27T18:36:52.444Z,10.41
2022-09-27T18:39:24.375Z,10.37
2022-09-27T18:41:56.754Z,10.40
2022-09-27T18:44:28.641Z,10.45
2022-09-27T18:47:00.724Z,10.39
2022-09-27T18:49:34.220Z,10.45
2022-09-27T18:52:06.385Z,10.33
2022-09-27T18:54:40.473Z,10.31
2022-09-27T18:57:12.403Z,10.31
2022-09-27T18:59:46.273Z,10.30
2022-09-27T19:02:18.270Z,10.17
2022-09-27T19:04:50.427Z,10.15
2022-09-27T19:07:22.333Z,10.08
2022-09-27T19:09:54.214Z,10.13
2022-09-27T19:12:27.053Z,10.07
2022-09-27T19:14:59.012Z,10.03
2022-09-27T19:17:30.998Z,10.03
2022-09-27T19:20:04.678Z,10.03
2022-09-27T19:22:36.633Z,10.06
2022-09-27T19:25:09.846Z,10.05
2022-09-27T19:27:43.294Z,10.05
2022-09-27T19:30:15.543Z,10.04
2022-09-27T19:32:47.807Z,10.02
2022-09-27T19:35:20.038Z,10.03
2022-09-27T19:37:52.351Z,9.99
2022-09-27T19:40:24.340Z,9.84
2022-09-27T19:42:56.341Z,9.89
2022-09-27T19:45:28.263Z,9.85
2022-09-27T19:48:00.356Z,9.83
2022-09-27T19:50:32.266Z,9.84
2022-09-27T19:53:04.199Z,9.86
2022-09-27T19:55:36.238Z,9.87
2022-09-27T19:58:08.167Z,9.82
2022-09-27T20:00:40.065Z,9.81
2022-09-27T20:03:12.016Z,9.73
2022-09-27T20:05:52.238Z,9.73
2022-09-27T20:08:25.111Z,9.65
2022-09-27T20:11:06.449Z,9.67
2022-09-27T20:13:40.116Z,9.66
2022-09-27T20:16:18.826Z,9.69
2022-09-27T20:18:59.230Z,9.68
2022-09-27T20:21:32.924Z,9.67
2022-09-27T20:24:05.888Z,9.68
2022-09-27T20:26:38.828Z,9.68
2022-09-27T20:29:11.311Z,9.70
2022-09-27T20:32:03.003Z,9.60
2022-09-27T20:34:35.620Z,9.59
2022-09-27T20:37:07.766Z,9.60
2022-09-27T20:39:40.038Z,9.51
2022-09-27T20:42:12.039Z,9.49
2022-09-27T20:44:43.990Z,9.42
2022-09-27T20:47:16.329Z,9.40
2022-09-27T20:49:48.261Z,9.41
2022-09-27T20:52:20.328Z,9.41
2022-09-27T20:54:52.252Z,9.46
2022-09-27T20:57:46.245Z,9.42
2022-09-27T21:00:17.751Z,9.41
2022-09-27T21:02:49.998Z,9.44
2022-09-27T21:05:22.547Z,9.39
2022-09-27T21:07:55.214Z,9.46
2022-09-27T21:10:27.138Z,9.49
2022-09-27T21:12:59.387Z,9.47
2022-09-27T21:15:32.018Z,9.43
2022-09-27T21:18:04.186Z,9.45
2022-09-27T21:20:36.189Z,9.47
2022-09-27T21:23:08.060Z,9.50
2022-09-27T21:25:40.000Z,9.49
2022-09-27T21:28:12.109Z,9.46
2022-09-27T21:30:44.023Z,9.45
2022-09-27T21:33:15.918Z,9.45
2022-09-27T21:35:50.998Z,9.47
2022-09-27T21:38:23.055Z,9.44
2022-09-27T21:41:03.501Z,9.49
2022-09-27T21:43:37.705Z,9.46
2022-09-27T21:46:23.848Z,9.45
2022-09-27T21:49:01.951Z,9.46
2022-09-27T21:51:39.497Z,9.45
2022-09-27T21:54:14.876Z,9.45
2022-09-27T21:56:46.907Z,9.51
2022-09-27T21:59:18.962Z,9.51
2022-09-27T22:01:51.073Z,9.54
2022-09-27T22:04:23.031Z,9.50
2022-09-27T22:06:55.003Z,9.50
2022-09-27T22:09:26.958Z,9.49
2022-09-27T22:11:58.872Z,9.43
2022-09-27T22:14:30.809Z,9.45
2022-09-27T22:17:02.902Z,9.42
2022-09-27T22:19:34.802Z,9.41
2022-09-27T22:22:06.759Z,9.40
2022-09-27T22:24:38.761Z,9.32
2022-09-27T22:27:10.669Z,9.35
2022-09-27T22:29:42.533Z,9.39
2022-09-27T22:32:14.435Z,9.38
2022-09-27T22:34:46.551Z,9.38
2022-09-27T22:37:18.443Z,9.36
2022-09-27T22:39:50.406Z,9.34
2022-09-27T22:42:23.311Z,9.31
2022-09-27T22:44:55.250Z,9.29
2022-09-27T22:47:27.210Z,9.28
2022-09-27T22:49:59.107Z,9.22
2022-09-27T22:52:31.044Z,9.15
2022-09-27T22:55:03.017Z,9.08
2022-09-27T22:57:34.932Z,9.10
2022-09-27T23:00:07.919Z,9.06
2022-09-27T23:02:39.827Z,9.10
2022-09-27T23:05:11.728Z,9.06
2022-09-27T23:07:47.373Z,9.01
2022-09-27T23:10:21.796Z,8.94
2022-09-27T23:12:58.352Z,8.99
2022-09-27T23:15:30.549Z,9.02
2022-09-27T23:18:02.473Z,9.02
2022-09-27T23:20:34.597Z,8.99
2022-09-27T23:23:13.020Z,8.96
2022-09-27T23:25:44.956Z,8.95
2022-09-27T23:28:16.892Z,8.96
2022-09-27T23:30:49.014Z,8.93
2022-09-27T23:33:22.064Z,8.92
2022-09-27T23:35:54.030Z,8.83
2022-09-27T23:38:29.346Z,8.82
2022-09-27T23:41:01.372Z,8.86
2022-09-27T23:43:33.490Z,8.86
2022-09-27T23:46:07.400Z,8.83
2022-09-27T23:48:40.097Z,8.83
2022-09-27T23:51:12.829Z,8.78
2022-09-27T23:53:44.769Z,8.79
2022-09-27T23:56:18.435Z,8.78
2022-09-27T23:58:50.437Z,8.76
